sensor_id;sensor_type;location;lat;lon;timestamp;P1;durP1;ratioP1;P2;durP2;ratioP2
45103;SDS011;30865;51.288;4.572;2023-04-07T00:02:06;7.20;;;4.28;;
45103;SDS011;30865;51.288;4.572;2023-04-07T00:04:31;7.97;;;4.53;;
45103;SDS011;30865;51.288;4.572;2023-04-07T00:06:57;5.90;;;3.90;;
45103;SDS011;30865;51.288;4.572;2023-04-07T00:09:22;6.55;;;4.43;;
45103;SDS011;30865;51.288;4.572;2023-04-07T00:11:48;8.30;;;4.32;;
45103;SDS011;30865;51.288;4.572;2023-04-07T00:14:13;6.43;;;3.88;;
45103;SDS011;30865;51.288;4.572;2023-04-07T00:16:39;5.57;;;3.95;;
45103;SDS011;30865;51.288;4.572;2023-04-07T00:19:05;8.32;;;4.65;;
45103;SDS011;30865;51.288;4.572;2023-04-07T00:21:30;7.97;;;4.55;;
45103;SDS011;30865;51.288;4.572;2023-04-07T00:23:56;6.38;;;4.28;;
45103;SDS011;30865;51.288;4.572;2023-04-07T00:26:21;7.35;;;4.35;;
45103;SDS011;30865;51.288;4.572;2023-04-07T00:28:47;8.75;;;4.60;;
45103;SDS011;30865;51.288;4.572;2023-04-07T00:31:12;7.68;;;4.55;;
45103;SDS011;30865;51.288;4.572;2023-04-07T00:33:38;9.30;;;5.18;;
45103;SDS011;30865;51.288;4.572;2023-04-07T00:36:04;7.40;;;4.22;;
45103;SDS011;30865;51.288;4.572;2023-04-07T00:38:30;10.07;;;4.90;;
45103;SDS011;30865;51.288;4.572;2023-04-07T00:40:56;8.85;;;4.50;;
45103;SDS011;30865;51.288;4.572;2023-04-07T00:43:23;7.45;;;4.75;;
45103;SDS011;30865;51.288;4.572;2023-04-07T00:45:49;9.52;;;5.22;;
45103;SDS011;30865;51.288;4.572;2023-04-07T00:48:15;8.77;;;4.75;;
45103;SDS011;30865;51.288;4.572;2023-04-07T00:50:40;10.77;;;5.63;;
45103;SDS011;30865;51.288;4.572;2023-04-07T00:53:06;9.25;;;4.93;;
45103;SDS011;30865;51.288;4.572;2023-04-07T00:55:32;9.88;;;4.85;;
45103;SDS011;30865;51.288;4.572;2023-04-07T00:57:57;7.53;;;4.28;;
45103;SDS011;30865;51.288;4.572;2023-04-07T01:00:23;9.93;;;4.97;;
45103;SDS011;30865;51.288;4.572;2023-04-07T01:02:51;9.18;;;4.90;;
45103;SDS011;30865;51.288;4.572;2023-04-07T01:05:41;8.50;;;4.78;;
45103;SDS011;30865;51.288;4.572;2023-04-07T01:08:15;8.63;;;5.13;;
45103;SDS011;30865;51.288;4.572;2023-04-07T01:13:39;12.55;;;5.13;;
45103;SDS011;30865;51.288;4.572;2023-04-07T01:16:16;12.10;;;5.20;;
45103;SDS011;30865;51.288;4.572;2023-04-07T01:18:50;9.05;;;5.15;;
45103;SDS011;30865;51.288;4.572;2023-04-07T01:21:19;8.25;;;4.88;;
45103;SDS011;30865;51.288;4.572;2023-04-07T01:23:51;8.82;;;5.72;;
45103;SDS011;30865;51.288;4.572;2023-04-07T01:26:36;8.55;;;5.50;;
45103;SDS011;30865;51.288;4.572;2023-04-07T01:31:55;8.93;;;4.97;;
45103;SDS011;30865;51.288;4.572;2023-04-07T01:34:24;8.05;;;5.30;;
45103;SDS011;30865;51.288;4.572;2023-04-07T01:36:53;8.40;;;5.40;;
45103;SDS011;30865;51.288;4.572;2023-04-07T01:39:20;9.95;;;5.53;;
45103;SDS011;30865;51.288;4.572;2023-04-07T01:41:46;10.63;;;6.25;;
45103;SDS011;30865;51.288;4.572;2023-04-07T01:44:19;9.07;;;5.47;;
45103;SDS011;30865;51.288;4.572;2023-04-07T01:46:46;8.32;;;5.35;;
45103;SDS011;30865;51.288;4.572;2023-04-07T01:49:14;8.73;;;5.03;;
45103;SDS011;30865;51.288;4.572;2023-04-07T01:51:40;8.25;;;4.95;;
45103;SDS011;30865;51.288;4.572;2023-04-07T01:54:06;8.60;;;4.85;;
45103;SDS011;30865;51.288;4.572;2023-04-07T01:56:32;10.50;;;5.30;;
45103;SDS011;30865;51.288;4.572;2023-04-07T01:58:58;8.93;;;5.22;;
45103;SDS011;30865;51.288;4.572;2023-04-07T02:01:23;10.32;;;6.03;;
45103;SDS011;30865;51.288;4.572;2023-04-07T02:06:44;10.75;;;5.85;;
45103;SDS011;30865;51.288;4.572;2023-04-07T02:09:15;9.35;;;5.15;;
45103;SDS011;30865;51.288;4.572;2023-04-07T02:11:42;9.57;;;6.00;;
45103;SDS011;30865;51.288;4.572;2023-04-07T02:14:10;10.25;;;5.70;;
45103;SDS011;30865;51.288;4.572;2023-04-07T02:16:36;14.82;;;6.30;;
45103;SDS011;30865;51.288;4.572;2023-04-07T02:19:03;8.65;;;5.07;;
45103;SDS011;30865;51.288;4.572;2023-04-07T02:21:29;9.40;;;5.55;;
45103;SDS011;30865;51.288;4.572;2023-04-07T02:23:56;9.63;;;5.95;;
45103;SDS011;30865;51.288;4.572;2023-04-07T02:26:25;10.23;;;5.40;;
45103;SDS011;30865;51.288;4.572;2023-04-07T02:28:50;10.30;;;6.05;;
45103;SDS011;30865;51.288;4.572;2023-04-07T02:31:16;9.85;;;5.32;;
45103;SDS011;30865;51.288;4.572;2023-04-07T02:33:41;8.20;;;4.88;;
45103;SDS011;30865;51.288;4.572;2023-04-07T02:36:07;10.48;;;5.68;;
45103;SDS011;30865;51.288;4.572;2023-04-07T02:38:32;10.27;;;5.90;;
45103;SDS011;30865;51.288;4.572;2023-04-07T02:40:58;14.05;;;6.57;;
45103;SDS011;30865;51.288;4.572;2023-04-07T02:43:23;8.52;;;5.07;;
45103;SDS011;30865;51.288;4.572;2023-04-07T02:45:49;9.07;;;5.75;;
45103;SDS011;30865;51.288;4.572;2023-04-07T02:48:15;8.75;;;5.43;;
45103;SDS011;30865;51.288;4.572;2023-04-07T02:50:40;11.30;;;5.63;;
45103;SDS011;30865;51.288;4.572;2023-04-07T02:53:06;9.50;;;5.35;;
45103;SDS011;30865;51.288;4.572;2023-04-07T02:55:32;12.10;;;6.07;;
45103;SDS011;30865;51.288;4.572;2023-04-07T02:57:57;11.80;;;5.95;;
45103;SDS011;30865;51.288;4.572;2023-04-07T03:00:22;9.60;;;5.85;;
45103;SDS011;30865;51.288;4.572;2023-04-07T03:02:49;12.05;;;6.72;;
45103;SDS011;30865;51.288;4.572;2023-04-07T03:05:14;10.50;;;7.00;;
45103;SDS011;30865;51.288;4.572;2023-04-07T03:07:40;12.23;;;6.82;;
45103;SDS011;30865;51.288;4.572;2023-04-07T03:10:06;11.82;;;5.85;;
45103;SDS011;30865;51.288;4.572;2023-04-07T03:12:31;12.90;;;6.72;;
45103;SDS011;30865;51.288;4.572;2023-04-07T03:14:57;10.70;;;6.00;;
45103;SDS011;30865;51.288;4.572;2023-04-07T03:17:22;10.00;;;6.05;;
45103;SDS011;30865;51.288;4.572;2023-04-07T03:19:48;14.05;;;6.43;;
45103;SDS011;30865;51.288;4.572;2023-04-07T03:22:15;10.18;;;5.93;;
45103;SDS011;30865;51.288;4.572;2023-04-07T03:24:41;12.10;;;6.95;;
45103;SDS011;30865;51.288;4.572;2023-04-07T03:27:10;9.50;;;6.60;;
45103;SDS011;30865;51.288;4.572;2023-04-07T03:29:35;11.43;;;6.05;;
45103;SDS011;30865;51.288;4.572;2023-04-07T03:32:00;8.80;;;5.60;;
45103;SDS011;30865;51.288;4.572;2023-04-07T03:34:26;12.05;;;6.85;;
45103;SDS011;30865;51.288;4.572;2023-04-07T03:36:51;9.80;;;5.80;;
45103;SDS011;30865;51.288;4.572;2023-04-07T03:39:17;14.25;;;6.82;;
45103;SDS011;30865;51.288;4.572;2023-04-07T03:41:42;8.15;;;5.25;;
45103;SDS011;30865;51.288;4.572;2023-04-07T03:44:11;10.20;;;6.47;;
45103;SDS011;30865;51.288;4.572;2023-04-07T03:46:36;9.77;;;5.75;;
45103;SDS011;30865;51.288;4.572;2023-04-07T03:49:02;13.00;;;6.63;;
45103;SDS011;30865;51.288;4.572;2023-04-07T03:51:27;11.35;;;5.85;;
45103;SDS011;30865;51.288;4.572;2023-04-07T03:53:53;8.85;;;5.50;;
45103;SDS011;30865;51.288;4.572;2023-04-07T03:56:21;9.80;;;6.40;;
45103;SDS011;30865;51.288;4.572;2023-04-07T03:58:47;10.15;;;5.70;;
45103;SDS011;30865;51.288;4.572;2023-04-07T04:01:13;10.07;;;6.22;;
45103;SDS011;30865;51.288;4.572;2023-04-07T04:03:38;10.82;;;6.03;;
45103;SDS011;30865;51.288;4.572;2023-04-07T04:06:04;12.70;;;7.35;;
45103;SDS011;30865;51.288;4.572;2023-04-07T04:08:30;11.85;;;6.10;;
45103;SDS011;30865;51.288;4.572;2023-04-07T04:10:55;12.50;;;7.32;;
45103;SDS011;30865;51.288;4.572;2023-04-07T04:13:21;10.50;;;6.75;;
45103;SDS011;30865;51.288;4.572;2023-04-07T04:15:46;11.13;;;6.50;;
45103;SDS011;30865;51.288;4.572;2023-04-07T04:18:12;13.52;;;6.40;;
45103;SDS011;30865;51.288;4.572;2023-04-07T04:20:37;11.40;;;7.13;;
45103;SDS011;30865;51.288;4.572;2023-04-07T04:23:03;11.38;;;6.88;;
45103;SDS011;30865;51.288;4.572;2023-04-07T04:25:29;9.38;;;6.53;;
45103;SDS011;30865;51.288;4.572;2023-04-07T04:27:54;10.90;;;7.00;;
45103;SDS011;30865;51.288;4.572;2023-04-07T04:30:20;9.75;;;5.93;;
45103;SDS011;30865;51.288;4.572;2023-04-07T04:32:46;13.10;;;6.68;;
45103;SDS011;30865;51.288;4.572;2023-04-07T04:35:11;11.30;;;6.57;;
45103;SDS011;30865;51.288;4.572;2023-04-07T04:37:37;9.20;;;5.90;;
45103;SDS011;30865;51.288;4.572;2023-04-07T04:40:03;8.73;;;6.53;;
45103;SDS011;30865;51.288;4.572;2023-04-07T04:42:32;10.85;;;6.03;;
45103;SDS011;30865;51.288;4.572;2023-04-07T04:44:58;9.80;;;5.63;;
45103;SDS011;30865;51.288;4.572;2023-04-07T04:47:23;11.30;;;5.78;;
45103;SDS011;30865;51.288;4.572;2023-04-07T04:49:49;11.85;;;6.32;;
45103;SDS011;30865;51.288;4.572;2023-04-07T04:52:15;10.43;;;6.65;;
45103;SDS011;30865;51.288;4.572;2023-04-07T04:54:40;13.80;;;6.90;;
45103;SDS011;30865;51.288;4.572;2023-04-07T04:57:06;11.88;;;6.28;;
45103;SDS011;30865;51.288;4.572;2023-04-07T04:59:32;9.93;;;5.47;;
45103;SDS011;30865;51.288;4.572;2023-04-07T05:01:58;12.18;;;7.90;;
45103;SDS011;30865;51.288;4.572;2023-04-07T05:04:23;10.73;;;6.75;;
45103;SDS011;30865;51.288;4.572;2023-04-07T05:06:49;16.17;;;7.20;;
45103;SDS011;30865;51.288;4.572;2023-04-07T05:09:15;12.63;;;7.05;;
45103;SDS011;30865;51.288;4.572;2023-04-07T05:11:41;13.35;;;7.03;;
45103;SDS011;30865;51.288;4.572;2023-04-07T05:14:07;12.43;;;6.13;;
45103;SDS011;30865;51.288;4.572;2023-04-07T05:16:32;10.32;;;6.55;;
45103;SDS011;30865;51.288;4.572;2023-04-07T05:18:58;14.23;;;7.43;;
45103;SDS011;30865;51.288;4.572;2023-04-07T05:21:24;10.30;;;6.45;;
45103;SDS011;30865;51.288;4.572;2023-04-07T05:23:50;12.07;;;6.63;;
45103;SDS011;30865;51.288;4.572;2023-04-07T05:26:16;11.20;;;7.05;;
45103;SDS011;30865;51.288;4.572;2023-04-07T05:28:42;10.85;;;5.90;;
45103;SDS011;30865;51.288;4.572;2023-04-07T05:31:07;12.23;;;7.53;;
45103;SDS011;30865;51.288;4.572;2023-04-07T05:33:33;13.35;;;7.57;;
45103;SDS011;30865;51.288;4.572;2023-04-07T05:35:59;11.70;;;8.32;;
45103;SDS011;30865;51.288;4.572;2023-04-07T05:38:24;13.02;;;7.13;;
45103;SDS011;30865;51.288;4.572;2023-04-07T05:40:50;13.15;;;7.05;;
45103;SDS011;30865;51.288;4.572;2023-04-07T05:43:15;12.57;;;7.68;;
45103;SDS011;30865;51.288;4.572;2023-04-07T05:45:41;13.25;;;7.05;;
45103;SDS011;30865;51.288;4.572;2023-04-07T05:48:06;14.25;;;7.60;;
45103;SDS011;30865;51.288;4.572;2023-04-07T05:50:32;11.05;;;6.80;;
45103;SDS011;30865;51.288;4.572;2023-04-07T05:53:00;13.18;;;7.50;;
45103;SDS011;30865;51.288;4.572;2023-04-07T05:55:25;13.95;;;7.93;;
45103;SDS011;30865;51.288;4.572;2023-04-07T05:57:51;12.65;;;6.60;;
45103;SDS011;30865;51.288;4.572;2023-04-07T06:00:17;13.80;;;7.53;;
45103;SDS011;30865;51.288;4.572;2023-04-07T06:02:43;11.30;;;6.63;;
45103;SDS011;30865;51.288;4.572;2023-04-07T06:05:09;12.48;;;7.28;;
45103;SDS011;30865;51.288;4.572;2023-04-07T06:07:35;12.90;;;7.20;;
45103;SDS011;30865;51.288;4.572;2023-04-07T06:10:00;12.88;;;7.20;;
45103;SDS011;30865;51.288;4.572;2023-04-07T06:12:26;13.20;;;7.90;;
45103;SDS011;30865;51.288;4.572;2023-04-07T06:14:52;11.20;;;7.28;;
45103;SDS011;30865;51.288;4.572;2023-04-07T06:17:19;11.10;;;7.15;;
45103;SDS011;30865;51.288;4.572;2023-04-07T06:19:44;11.63;;;7.32;;
45103;SDS011;30865;51.288;4.572;2023-04-07T06:22:10;13.18;;;7.30;;
45103;SDS011;30865;51.288;4.572;2023-04-07T06:24:36;14.98;;;7.55;;
45103;SDS011;30865;51.288;4.572;2023-04-07T06:27:01;13.23;;;7.25;;
45103;SDS011;30865;51.288;4.572;2023-04-07T06:29:27;13.30;;;7.63;;
45103;SDS011;30865;51.288;4.572;2023-04-07T06:31:53;12.45;;;7.60;;
45103;SDS011;30865;51.288;4.572;2023-04-07T06:34:19;12.82;;;7.45;;
45103;SDS011;30865;51.288;4.572;2023-04-07T06:36:45;13.40;;;7.38;;
45103;SDS011;30865;51.288;4.572;2023-04-07T06:39:11;11.98;;;6.88;;
45103;SDS011;30865;51.288;4.572;2023-04-07T06:41:36;17.73;;;7.55;;
45103;SDS011;30865;51.288;4.572;2023-04-07T06:44:03;11.95;;;7.57;;
45103;SDS011;30865;51.288;4.572;2023-04-07T06:46:28;12.13;;;6.95;;
45103;SDS011;30865;51.288;4.572;2023-04-07T06:48:54;10.70;;;6.47;;
45103;SDS011;30865;51.288;4.572;2023-04-07T06:51:19;13.23;;;7.72;;
45103;SDS011;30865;51.288;4.572;2023-04-07T06:53:45;12.30;;;7.35;;
45103;SDS011;30865;51.288;4.572;2023-04-07T06:56:12;12.68;;;7.10;;
45103;SDS011;30865;51.288;4.572;2023-04-07T06:58:38;9.98;;;6.85;;
45103;SDS011;30865;51.288;4.572;2023-04-07T07:01:04;13.35;;;7.63;;
45103;SDS011;30865;51.288;4.572;2023-04-07T07:03:30;15.80;;;6.45;;
45103;SDS011;30865;51.288;4.572;2023-04-07T07:05:59;11.50;;;6.22;;
45103;SDS011;30865;51.288;4.572;2023-04-07T07:08:26;14.38;;;7.18;;
45103;SDS011;30865;51.288;4.572;2023-04-07T07:10:53;11.75;;;6.47;;
45103;SDS011;30865;51.288;4.572;2023-04-07T07:13:19;10.10;;;6.82;;
45103;SDS011;30865;51.288;4.572;2023-04-07T07:15:47;12.63;;;6.32;;
45103;SDS011;30865;51.288;4.572;2023-04-07T07:18:13;14.57;;;6.50;;
45103;SDS011;30865;51.288;4.572;2023-04-07T07:20:39;11.38;;;6.93;;
45103;SDS011;30865;51.288;4.572;2023-04-07T07:23:05;13.65;;;7.10;;
45103;SDS011;30865;51.288;4.572;2023-04-07T07:25:30;12.60;;;6.55;;
45103;SDS011;30865;51.288;4.572;2023-04-07T07:27:56;9.27;;;6.72;;
45103;SDS011;30865;51.288;4.572;2023-04-07T07:30:21;9.63;;;5.38;;
45103;SDS011;30865;51.288;4.572;2023-04-07T07:32:48;9.30;;;5.72;;
45103;SDS011;30865;51.288;4.572;2023-04-07T07:35:14;10.00;;;5.88;;
45103;SDS011;30865;51.288;4.572;2023-04-07T07:37:40;13.13;;;6.82;;
45103;SDS011;30865;51.288;4.572;2023-04-07T07:40:05;9.65;;;6.15;;
45103;SDS011;30865;51.288;4.572;2023-04-07T07:42:31;11.00;;;6.35;;
45103;SDS011;30865;51.288;4.572;2023-04-07T07:44:57;11.57;;;6.32;;
45103;SDS011;30865;51.288;4.572;2023-04-07T07:47:23;9.13;;;5.68;;
45103;SDS011;30865;51.288;4.572;2023-04-07T07:49:50;10.05;;;5.95;;
45103;SDS011;30865;51.288;4.572;2023-04-07T07:52:15;10.18;;;6.20;;
45103;SDS011;30865;51.288;4.572;2023-04-07T07:54:41;11.02;;;6.05;;
45103;SDS011;30865;51.288;4.572;2023-04-07T07:57:06;11.30;;;7.15;;
45103;SDS011;30865;51.288;4.572;2023-04-07T07:59:32;9.93;;;6.75;;
45103;SDS011;30865;51.288;4.572;2023-04-07T08:01:58;8.02;;;5.63;;
45103;SDS011;30865;51.288;4.572;2023-04-07T08:04:23;9.05;;;5.68;;
45103;SDS011;30865;51.288;4.572;2023-04-07T08:06:50;11.30;;;5.97;;
45103;SDS011;30865;51.288;4.572;2023-04-07T08:09:16;12.30;;;5.88;;
45103;SDS011;30865;51.288;4.572;2023-04-07T08:11:42;8.35;;;5.68;;
45103;SDS011;30865;51.288;4.572;2023-04-07T08:14:08;8.82;;;5.95;;
45103;SDS011;30865;51.288;4.572;2023-04-07T08:16:34;9.52;;;5.80;;
45103;SDS011;30865;51.288;4.572;2023-04-07T08:18:59;9.77;;;5.65;;
45103;SDS011;30865;51.288;4.572;2023-04-07T08:21:25;10.80;;;6.38;;
45103;SDS011;30865;51.288;4.572;2023-04-07T08:23:52;8.20;;;5.13;;
45103;SDS011;30865;51.288;4.572;2023-04-07T08:26:18;11.95;;;6.28;;
45103;SDS011;30865;51.288;4.572;2023-04-07T08:28:43;8.35;;;5.10;;
45103;SDS011;30865;51.288;4.572;2023-04-07T08:31:09;8.60;;;5.75;;
45103;SDS011;30865;51.288;4.572;2023-04-07T08:33:37;11.35;;;5.00;;
45103;SDS011;30865;51.288;4.572;2023-04-07T08:36:05;12.03;;;5.53;;
45103;SDS011;30865;51.288;4.572;2023-04-07T08:38:30;9.63;;;4.85;;
45103;SDS011;30865;51.288;4.572;2023-04-07T08:41:03;6.20;;;4.07;;
45103;SDS011;30865;51.288;4.572;2023-04-07T08:43:34;5.82;;;3.58;;
45103;SDS011;30865;51.288;4.572;2023-04-07T08:46:00;6.13;;;3.67;;
45103;SDS011;30865;51.288;4.572;2023-04-07T08:48:27;7.88;;;4.22;;
45103;SDS011;30865;51.288;4.572;2023-04-07T08:50:59;5.07;;;3.75;;
45103;SDS011;30865;51.288;4.572;2023-04-07T08:53:35;5.38;;;3.75;;
45103;SDS011;30865;51.288;4.572;2023-04-07T08:56:14;6.10;;;4.07;;
45103;SDS011;30865;51.288;4.572;2023-04-07T08:58:43;8.25;;;3.80;;
45103;SDS011;30865;51.288;4.572;2023-04-07T09:01:10;6.30;;;3.47;;
45103;SDS011;30865;51.288;4.572;2023-04-07T09:03:37;5.57;;;3.45;;
45103;SDS011;30865;51.288;4.572;2023-04-07T09:06:03;5.00;;;3.72;;
45103;SDS011;30865;51.288;4.572;2023-04-07T09:08:28;6.15;;;3.67;;
45103;SDS011;30865;51.288;4.572;2023-04-07T09:10:55;4.55;;;3.20;;
45103;SDS011;30865;51.288;4.572;2023-04-07T09:13:23;5.00;;;3.30;;
45103;SDS011;30865;51.288;4.572;2023-04-07T09:15:55;6.10;;;3.35;;
45103;SDS011;30865;51.288;4.572;2023-04-07T09:18:21;4.63;;;3.25;;
45103;SDS011;30865;51.288;4.572;2023-04-07T09:20:53;5.75;;;2.92;;
45103;SDS011;30865;51.288;4.572;2023-04-07T09:23:30;4.93;;;3.33;;
45103;SDS011;30865;51.288;4.572;2023-04-07T09:25:57;7.10;;;3.50;;
45103;SDS011;30865;51.288;4.572;2023-04-07T09:28:41;5.38;;;3.38;;
45103;SDS011;30865;51.288;4.572;2023-04-07T09:31:07;5.38;;;3.65;;
45103;SDS011;30865;51.288;4.572;2023-04-07T09:33:33;5.57;;;3.25;;
45103;SDS011;30865;51.288;4.572;2023-04-07T09:36:00;5.07;;;3.28;;
45103;SDS011;30865;51.288;4.572;2023-04-07T09:38:32;7.22;;;3.55;;
45103;SDS011;30865;51.288;4.572;2023-04-07T09:41:05;5.07;;;3.63;;
45103;SDS011;30865;51.288;4.572;2023-04-07T09:43:36;5.53;;;3.85;;
45103;SDS011;30865;51.288;4.572;2023-04-07T09:46:06;6.93;;;3.70;;
45103;SDS011;30865;51.288;4.572;2023-04-07T09:48:42;4.15;;;3.10;;
45103;SDS011;30865;51.288;4.572;2023-04-07T09:51:10;4.22;;;3.05;;
45103;SDS011;30865;51.288;4.572;2023-04-07T09:56:19;5.55;;;3.15;;
45103;SDS011;30865;51.288;4.572;2023-04-07T09:58:48;6.53;;;3.22;;
45103;SDS011;30865;51.288;4.572;2023-04-07T10:01:17;4.97;;;3.42;;
45103;SDS011;30865;51.288;4.572;2023-04-07T10:03:45;7.32;;;3.50;;
45103;SDS011;30865;51.288;4.572;2023-04-07T10:06:12;5.95;;;3.15;;
45103;SDS011;30865;51.288;4.572;2023-04-07T10:08:39;4.03;;;2.80;;
45103;SDS011;30865;51.288;4.572;2023-04-07T10:11:06;6.68;;;3.85;;
45103;SDS011;30865;51.288;4.572;2023-04-07T10:13:35;6.68;;;3.88;;
45103;SDS011;30865;51.288;4.572;2023-04-07T10:16:05;6.47;;;4.45;;
45103;SDS011;30865;51.288;4.572;2023-04-07T10:18:32;8.05;;;3.67;;
45103;SDS011;30865;51.288;4.572;2023-04-07T10:20:59;6.47;;;3.83;;
45103;SDS011;30865;51.288;4.572;2023-04-07T10:23:44;4.93;;;3.40;;
45103;SDS011;30865;51.288;4.572;2023-04-07T10:26:33;6.88;;;4.13;;
45103;SDS011;30865;51.288;4.572;2023-04-07T10:29:02;6.68;;;4.28;;
45103;SDS011;30865;51.288;4.572;2023-04-07T10:31:30;6.22;;;3.17;;
45103;SDS011;30865;51.288;4.572;2023-04-07T10:33:56;7.13;;;3.97;;
45103;SDS011;30865;51.288;4.572;2023-04-07T10:36:22;5.45;;;3.65;;
45103;SDS011;30865;51.288;4.572;2023-04-07T10:41:35;3.92;;;2.75;;
45103;SDS011;30865;51.288;4.572;2023-04-07T10:44:03;7.72;;;3.05;;
45103;SDS011;30865;51.288;4.572;2023-04-07T10:49:16;5.57;;;3.05;;
45103;SDS011;30865;51.288;4.572;2023-04-07T10:51:42;5.15;;;3.40;;
45103;SDS011;30865;51.288;4.572;2023-04-07T10:54:14;4.63;;;2.60;;
45103;SDS011;30865;51.288;4.572;2023-04-07T10:59:29;6.15;;;3.22;;
45103;SDS011;30865;51.288;4.572;2023-04-07T11:04:44;4.53;;;2.85;;
45103;SDS011;30865;51.288;4.572;2023-04-07T11:07:11;10.80;;;3.58;;
45103;SDS011;30865;51.288;4.572;2023-04-07T11:09:38;4.50;;;2.58;;
45103;SDS011;30865;51.288;4.572;2023-04-07T11:12:05;6.20;;;3.00;;
45103;SDS011;30865;51.288;4.572;2023-04-07T11:14:31;10.10;;;3.50;;
45103;SDS011;30865;51.288;4.572;2023-04-07T11:17:01;4.68;;;2.75;;
45103;SDS011;30865;51.288;4.572;2023-04-07T11:19:27;4.50;;;3.35;;
45103;SDS011;30865;51.288;4.572;2023-04-07T11:24:41;5.40;;;2.80;;
45103;SDS011;30865;51.288;4.572;2023-04-07T11:27:13;4.00;;;2.67;;
45103;SDS011;30865;51.288;4.572;2023-04-07T11:29:39;4.20;;;3.10;;
45103;SDS011;30865;51.288;4.572;2023-04-07T11:32:05;6.13;;;2.90;;
45103;SDS011;30865;51.288;4.572;2023-04-07T11:34:31;6.05;;;2.83;;
45103;SDS011;30865;51.288;4.572;2023-04-07T11:39:53;4.85;;;2.30;;
45103;SDS011;30865;51.288;4.572;2023-04-07T11:42:35;3.40;;;2.53;;
45103;SDS011;30865;51.288;4.572;2023-04-07T11:45:02;3.78;;;2.35;;
45103;SDS011;30865;51.288;4.572;2023-04-07T11:50:00;3.60;;;2.35;;
45103;SDS011;30865;51.288;4.572;2023-04-07T11:52:25;4.85;;;3.50;;
45103;SDS011;30865;51.288;4.572;2023-04-07T11:54:51;5.75;;;2.47;;
45103;SDS011;30865;51.288;4.572;2023-04-07T11:57:24;5.05;;;2.88;;
45103;SDS011;30865;51.288;4.572;2023-04-07T11:59:50;6.65;;;3.22;;
45103;SDS011;30865;51.288;4.572;2023-04-07T12:02:29;3.55;;;2.60;;
45103;SDS011;30865;51.288;4.572;2023-04-07T12:04:56;2.63;;;2.22;;
45103;SDS011;30865;51.288;4.572;2023-04-07T12:07:21;4.22;;;2.45;;
45103;SDS011;30865;51.288;4.572;2023-04-07T12:09:47;8.60;;;2.80;;
45103;SDS011;30865;51.288;4.572;2023-04-07T12:12:13;4.72;;;2.25;;
45103;SDS011;30865;51.288;4.572;2023-04-07T12:14:38;13.07;;;2.70;;
45103;SDS011;30865;51.288;4.572;2023-04-07T12:17:04;4.60;;;2.33;;
45103;SDS011;30865;51.288;4.572;2023-04-07T12:19:31;5.90;;;3.03;;
45103;SDS011;30865;51.288;4.572;2023-04-07T12:21:59;4.15;;;2.60;;
45103;SDS011;30865;51.288;4.572;2023-04-07T12:24:24;7.95;;;3.28;;
45103;SDS011;30865;51.288;4.572;2023-04-07T12:26:51;4.57;;;3.40;;
45103;SDS011;30865;51.288;4.572;2023-04-07T12:29:17;8.55;;;4.40;;
45103;SDS011;30865;51.288;4.572;2023-04-07T12:31:44;5.43;;;3.90;;
45103;SDS011;30865;51.288;4.572;2023-04-07T12:34:09;7.28;;;3.90;;
45103;SDS011;30865;51.288;4.572;2023-04-07T12:36:35;7.00;;;3.15;;
45103;SDS011;30865;51.288;4.572;2023-04-07T12:39:00;5.53;;;3.40;;
45103;SDS011;30865;51.288;4.572;2023-04-07T12:41:26;7.18;;;3.22;;
45103;SDS011;30865;51.288;4.572;2023-04-07T12:43:52;4.60;;;2.20;;
45103;SDS011;30865;51.288;4.572;2023-04-07T12:46:20;3.15;;;2.00;;
45103;SDS011;30865;51.288;4.572;2023-04-07T12:48:46;6.57;;;2.00;;
45103;SDS011;30865;51.288;4.572;2023-04-07T12:51:12;4.45;;;2.40;;
45103;SDS011;30865;51.288;4.572;2023-04-07T12:53:37;2.72;;;1.95;;
45103;SDS011;30865;51.288;4.572;2023-04-07T12:56:03;1.83;;;1.45;;
45103;SDS011;30865;51.288;4.572;2023-04-07T12:58:28;2.65;;;1.55;;
45103;SDS011;30865;51.288;4.572;2023-04-07T13:00:54;2.35;;;1.40;;
45103;SDS011;30865;51.288;4.572;2023-04-07T13:03:20;5.63;;;1.02;;
45103;SDS011;30865;51.288;4.572;2023-04-07T13:05:46;1.67;;;0.95;;
45103;SDS011;30865;51.288;4.572;2023-04-07T13:08:12;1.17;;;0.90;;
45103;SDS011;30865;51.288;4.572;2023-04-07T13:10:37;2.42;;;0.75;;
45103;SDS011;30865;51.288;4.572;2023-04-07T13:13:03;1.30;;;0.70;;
45103;SDS011;30865;51.288;4.572;2023-04-07T13:15:29;1.85;;;1.13;;
45103;SDS011;30865;51.288;4.572;2023-04-07T13:17:54;3.40;;;1.63;;
45103;SDS011;30865;51.288;4.572;2023-04-07T13:20:20;3.05;;;1.80;;
45103;SDS011;30865;51.288;4.572;2023-04-07T13:22:46;2.20;;;1.58;;
45103;SDS011;30865;51.288;4.572;2023-04-07T13:25:12;3.35;;;1.17;;
45103;SDS011;30865;51.288;4.572;2023-04-07T13:27:38;3.67;;;1.70;;
45103;SDS011;30865;51.288;4.572;2023-04-07T13:30:03;2.13;;;1.70;;
45103;SDS011;30865;51.288;4.572;2023-04-07T13:32:30;4.18;;;2.03;;
45103;SDS011;30865;51.288;4.572;2023-04-07T13:34:55;2.83;;;1.20;;
45103;SDS011;30865;51.288;4.572;2023-04-07T13:37:21;4.47;;;1.58;;
45103;SDS011;30865;51.288;4.572;2023-04-07T13:39:46;5.30;;;2.22;;
45103;SDS011;30865;51.288;4.572;2023-04-07T13:42:12;4.03;;;2.25;;
45103;SDS011;30865;51.288;4.572;2023-04-07T13:44:40;2.30;;;1.58;;
45103;SDS011;30865;51.288;4.572;2023-04-07T13:47:09;1.98;;;1.30;;
45103;SDS011;30865;51.288;4.572;2023-04-07T13:49:35;2.22;;;1.10;;
45103;SDS011;30865;51.288;4.572;2023-04-07T13:52:00;3.88;;;1.35;;
45103;SDS011;30865;51.288;4.572;2023-04-07T13:54:26;3.58;;;1.05;;
45103;SDS011;30865;51.288;4.572;2023-04-07T13:56:51;2.15;;;1.27;;
45103;SDS011;30865;51.288;4.572;2023-04-07T13:59:17;3.20;;;1.40;;
45103;SDS011;30865;51.288;4.572;2023-04-07T14:01:43;3.92;;;1.42;;
45103;SDS011;30865;51.288;4.572;2023-04-07T14:04:08;1.77;;;1.15;;
45103;SDS011;30865;51.288;4.572;2023-04-07T14:06:34;2.90;;;1.60;;
45103;SDS011;30865;51.288;4.572;2023-04-07T14:09:01;5.00;;;1.85;;
45103;SDS011;30865;51.288;4.572;2023-04-07T14:11:27;2.38;;;1.40;;
45103;SDS011;30865;51.288;4.572;2023-04-07T14:13:53;1.48;;;1.30;;
45103;SDS011;30865;51.288;4.572;2023-04-07T14:16:20;3.42;;;1.67;;
45103;SDS011;30865;51.288;4.572;2023-04-07T14:18:46;3.45;;;2.00;;
45103;SDS011;30865;51.288;4.572;2023-04-07T14:21:13;4.07;;;1.90;;
45103;SDS011;30865;51.288;4.572;2023-04-07T14:23:39;3.05;;;2.38;;
45103;SDS011;30865;51.288;4.572;2023-04-07T14:26:08;3.58;;;1.83;;
45103;SDS011;30865;51.288;4.572;2023-04-07T14:28:35;2.67;;;2.25;;
45103;SDS011;30865;51.288;4.572;2023-04-07T14:31:00;4.18;;;2.00;;
45103;SDS011;30865;51.288;4.572;2023-04-07T14:33:26;3.40;;;2.80;;
45103;SDS011;30865;51.288;4.572;2023-04-07T14:35:51;3.28;;;1.92;;
45103;SDS011;30865;51.288;4.572;2023-04-07T14:38:17;5.70;;;2.47;;
45103;SDS011;30865;51.288;4.572;2023-04-07T14:40:42;4.50;;;2.30;;
45103;SDS011;30865;51.288;4.572;2023-04-07T14:43:09;3.47;;;2.08;;
45103;SDS011;30865;51.288;4.572;2023-04-07T14:45:34;4.45;;;2.50;;
45103;SDS011;30865;51.288;4.572;2023-04-07T14:48:00;2.97;;;2.05;;
45103;SDS011;30865;51.288;4.572;2023-04-07T14:50:26;4.00;;;1.80;;
45103;SDS011;30865;51.288;4.572;2023-04-07T14:52:52;3.60;;;2.22;;
45103;SDS011;30865;51.288;4.572;2023-04-07T14:55:17;4.53;;;2.65;;
45103;SDS011;30865;51.288;4.572;2023-04-07T14:57:43;5.18;;;2.17;;
45103;SDS011;30865;51.288;4.572;2023-04-07T15:00:09;3.53;;;2.47;;
45103;SDS011;30865;51.288;4.572;2023-04-07T15:02:35;3.28;;;2.58;;
45103;SDS011;30865;51.288;4.572;2023-04-07T15:05:00;3.60;;;2.08;;
45103;SDS011;30865;51.288;4.572;2023-04-07T15:07:26;2.58;;;1.80;;
45103;SDS011;30865;51.288;4.572;2023-04-07T15:09:52;4.05;;;2.28;;
45103;SDS011;30865;51.288;4.572;2023-04-07T15:12:18;3.28;;;1.90;;